Nearby METAR Data
EGNX - East Midlands, United Kingdom
Distance from station: SSE 24mi, 39km
Updated: 21/01/2019 03:50
Overcast
Overcast
 Wind from varies
Wind: varies 3 mph , 6 km/h
Temperature: 2°C
Dew Point: 2°C
Humidity: 100%
Barometer: 1024 hPa
Clouds: Overcast
Visibility: 4 miles , 7 km
Cloud details: Overcast 823 m
2019/01/21 03:50 EGNX 210350Z VRB03KT 7000 OVC027 02/02 Q1024
EGCN - Doncaster Sheffi, United Kingdom
Distance from station: NE 31mi, 49km
Updated: 21/01/2019 03:20
Mostly Cloudy
Mostly Cloudy
 Wind from NW
Wind: NW 7 mph , 11 km/h
Temperature: 4°C
Wind Chill: 1°C
Dew Point: 4°C
Humidity: 100%
Barometer: 1025 hPa
Clouds: Mostly Cloudy
Visibility: 4 miles , 7 km
Cloud details: Mostly Cloudy 701 m
2019/01/21 03:20 EGCN 210320Z 32006KT 7000 BKN023 04/04 Q1025
 
EGXS - Swinderby Raf, United Kingdom
Distance from station: E 33mi, 54km
Updated: 21/01/2019 02:50
Mostly Cloudy
Mostly Cloudy
 Wind from WNW
Wind: WNW 8 mph , 13 km/h
Temperature: 4°C
Wind Chill: 1°C
Dew Point: 3°C
Humidity: 93%
Barometer: 1023 hPa
Clouds: Mostly Cloudy
Visibility: 6 miles , 9 km
Cloud details: Few Clouds 427 m
Mostly Cloudy 945 m
Mostly Cloudy 1158 m
2019/01/21 02:50 EGXS 210250Z AUTO 29007KT 9000 // FEW014/// BKN031/// BKN038/// 04/03 Q1023
EGCC - Manchester Intl, United Kingdom
Distance from station: WNW 35mi, 56km
Updated: 21/01/2019 03:50
Haze, Overcast
Haze, Overcast
 Wind from E
Wind: E 2 mph , 4 km/h
Temperature: 4°C
Dew Point: 3°C
Humidity: 93%
Barometer: 1024 hPa
Summary: Haze
Clouds: Overcast
Visibility: 1 mile , 2 km
Cloud details: Overcast 549 m
2019/01/21 03:50 EGCC 210350Z AUTO 08002KT 2400 HZ OVC018 04/03 Q1024 RERA
 
EGXP - Scampton Raf, United Kingdom
Distance from station: ENE 40mi, 65km
Updated: 21/01/2019 02:50
Overcast
Overcast
 Wind from WNW
Wind: WNW 6 mph , 9 km/h
Temperature: 3°C
Wind Chill: 0°C
Dew Point: 2°C
Humidity: 93%
Barometer: 1023 hPa
Clouds: Overcast
Visibility: 3 miles , 5 km
Cloud details: Few Clouds 671 m
Overcast 823 m
2019/01/21 02:50 EGXP 210250Z AUTO 30005KT 5000 // FEW022/// OVC027/// 03/02 Q1023
EGXW - Waddington Raf, United Kingdom
Distance from station: E 40mi, 65km
Updated: 21/01/2019 02:50
Haze, Overcast
Haze, Overcast
 Wind from WNW
Wind: WNW 6 mph , 9 km/h
Temperature: 3°C
Wind Chill: 0°C
Dew Point: 2°C
Humidity: 93%
Barometer: 1023 hPa
Summary: Haze
Clouds: Overcast
Visibility: 4 miles , 6 km
Cloud details: Overcast 792 m
2019/01/21 02:50 EGXW 210250Z AUTO 30005KT 6000 HZ OVC026/// 03/02 Q1023